Time;durP1;ratioP1;P1;durP2;ratioP2;P2;SDS_P1;SDS_P2;PMS_P1;PMS_P2;Temp;Humidity;BMP_temperature;BMP_pressure;BME280_temperature;BME280_humidity;BME280_pressure;Samples;Min_cycle;Max_cycle;Signal;HPM_P1;HPM_P2
2023/01/05 00:01:37;;;;;;;21.48;4.22;;;9.90;99.90;;;;;;5916528;24;20104;-90
2023/01/05 00:04:03;;;;;;;15.43;3.20;;;9.90;99.90;;;;;;5918320;24;20031;-90
2023/01/05 00:06:29;;;;;;;12.32;3.30;;;9.90;99.90;;;;;;5961932;24;20382;-90
2023/01/05 00:09:04;;;;;;;22.17;3.97;;;9.90;99.90;;;;;;5983384;23;20107;-87
2023/01/05 00:22:48;;;;;;;21.42;4.43;;;9.80;99.90;;;;;;5940296;24;20047;-89
2023/01/05 00:25:16;;;;;;;21.92;4.10;;;9.80;99.90;;;;;;5916725;24;20020;-91
2023/01/05 00:27:44;;;;;;;17.85;3.97;;;9.90;99.90;;;;;;5987309;23;20064;-89
2023/01/05 00:30:12;;;;;;;25.80;4.32;;;9.80;99.90;;;;;;5986813;23;20523;-90
2023/01/05 00:32:40;;;;;;;23.58;4.65;;;9.80;99.90;;;;;;5917668;24;20089;-90
2023/01/05 00:35:06;;;;;;;21.23;3.92;;;9.90;99.90;;;;;;5917100;24;20024;-91
2023/01/05 00:37:33;;;;;;;25.50;4.05;;;9.80;99.90;;;;;;5938669;24;20032;-89
2023/01/05 00:39:58;;;;;;;16.60;3.90;;;9.80;99.90;;;;;;5918039;24;20092;-90
2023/01/05 00:42:24;;;;;;;20.27;4.47;;;9.80;99.90;;;;;;5963892;24;20494;-90
2023/01/05 00:44:49;;;;;;;21.75;5.15;;;9.80;99.90;;;;;;5917994;24;20107;-89
2023/01/05 00:47:15;;;;;;;18.67;3.88;;;9.80;99.90;;;;;;5918516;24;20020;-90
2023/01/05 00:49:41;;;;;;;23.98;4.82;;;9.80;99.90;;;;;;5917319;24;20016;-89
2023/01/05 00:52:10;;;;;;;17.70;4.78;;;9.80;99.90;;;;;;5917796;24;20032;-90
2023/01/05 00:54:36;;;;;;;16.23;4.13;;;9.80;99.90;;;;;;5918122;24;20147;-90
2023/01/05 00:57:01;;;;;;;22.45;5.07;;;9.80;99.90;;;;;;5918395;24;20464;-90
2023/01/05 00:59:30;;;;;;;27.20;5.40;;;9.80;99.90;;;;;;5918063;24;20025;-90
2023/01/05 01:01:56;;;;;;;27.75;4.93;;;9.80;99.90;;;;;;5916953;24;20056;-90
2023/01/05 01:04:22;;;;;;;28.98;5.10;;;9.80;99.90;;;;;;5918493;24;20020;-90
2023/01/05 01:06:47;;;;;;;17.35;3.60;;;9.90;99.90;;;;;;5961695;24;20077;-90
2023/01/05 01:09:13;;;;;;;22.38;4.72;;;9.80;99.90;;;;;;5964540;24;20086;-90
2023/01/05 01:11:39;;;;;;;15.60;3.83;;;9.90;99.90;;;;;;5917210;24;20047;-89
2023/01/05 01:14:06;;;;;;;25.48;4.90;;;9.90;99.90;;;;;;5918442;24;20432;-89
2023/01/05 01:16:35;;;;;;;24.85;4.05;;;9.90;99.90;;;;;;5917555;24;20112;-90
2023/01/05 01:19:01;;;;;;;25.63;4.85;;;9.80;99.90;;;;;;5964227;24;20021;-90
2023/01/05 01:21:26;;;;;;;19.85;3.63;;;9.80;99.90;;;;;;5963346;24;20025;-90
2023/01/05 01:23:52;;;;;;;20.20;3.50;;;9.80;99.90;;;;;;5963335;24;20055;-89
2023/01/05 01:26:18;;;;;;;21.20;3.90;;;9.90;99.90;;;;;;5986787;23;20020;-91
2023/01/05 01:28:47;;;;;;;22.33;4.60;;;9.90;99.90;;;;;;5987067;23;20052;-89
2023/01/05 01:31:13;;;;;;;18.70;3.45;;;9.90;99.90;;;;;;5917358;24;20025;-89
2023/01/05 01:33:39;;;;;;;19.95;4.10;;;9.90;99.90;;;;;;5918111;24;20354;-90
2023/01/05 01:36:06;;;;;;;23.02;4.75;;;9.90;99.90;;;;;;5917609;24;20016;-90
2023/01/05 01:38:32;;;;;;;22.75;4.50;;;9.90;99.90;;;;;;5917029;24;20465;-90
2023/01/05 01:40:57;;;;;;;19.15;4.75;;;9.90;99.90;;;;;;5941136;24;20025;-90
2023/01/05 01:43:44;;;;;;;18.38;4.13;;;9.90;99.90;;;;;;5917072;24;20031;-89
2023/01/05 01:46:11;;;;;;;17.95;4.20;;;9.90;99.90;;;;;;5940192;24;20440;-89
2023/01/05 01:48:41;;;;;;;19.48;5.05;;;9.90;99.90;;;;;;5918461;24;20355;-91
2023/01/05 01:51:19;;;;;;;22.52;5.10;;;10.00;99.90;;;;;;5986702;23;20112;-90
2023/01/05 01:53:50;;;;;;;22.92;4.25;;;9.90;99.90;;;;;;5940108;24;20024;-91
2023/01/05 01:56:21;;;;;;;20.00;4.18;;;9.90;99.90;;;;;;5915182;24;20024;-89
2023/01/05 01:58:47;;;;;;;20.17;3.95;;;10.00;99.90;;;;;;5914360;24;20104;-88
2023/01/05 02:01:13;;;;;;;22.00;4.15;;;10.00;99.90;;;;;;5962218;24;20096;-89
2023/01/05 02:03:40;;;;;;;20.23;4.78;;;10.00;99.90;;;;;;5915760;24;20027;-89
2023/01/05 02:06:06;;;;;;;16.85;3.78;;;10.00;99.90;;;;;;5913080;24;20055;-89
2023/01/05 02:08:33;;;;;;;22.48;3.80;;;9.90;99.90;;;;;;5912675;24;20299;-89
2023/01/05 02:11:07;;;;;;;25.58;4.18;;;9.90;99.90;;;;;;5913826;24;20016;-91
2023/01/05 02:13:54;;;;;;;20.65;4.47;;;9.90;99.90;;;;;;5984714;23;20023;-90
2023/01/05 02:16:29;;;;;;;22.80;3.90;;;9.90;99.90;;;;;;5984646;23;20028;-90
2023/01/05 02:19:43;;;;;;;19.85;4.43;;;9.90;99.90;;;;;;5986005;23;20665;-91
2023/01/05 02:22:36;;;;;;;21.65;4.30;;;9.90;99.90;;;;;;5884362;24;20028;-89
2023/01/05 02:25:20;;;;;;;16.88;4.00;;;9.90;99.90;;;;;;5987116;23;20023;-89
2023/01/05 02:28:02;;;;;;;21.80;4.60;;;9.80;99.90;;;;;;5916751;24;20153;-90
2023/01/05 02:30:45;;;;;;;17.05;3.67;;;9.80;99.90;;;;;;5940651;24;20056;-90
2023/01/05 02:33:53;;;;;;;20.10;3.83;;;9.80;99.90;;;;;;5986563;23;20350;-89
2023/01/05 02:36:36;;;;;;;20.85;4.90;;;9.80;99.90;;;;;;5916708;24;20024;-90
2023/01/05 02:39:53;;;;;;;30.48;4.40;;;9.80;99.90;;;;;;5983959;23;20055;-90
2023/01/05 02:42:23;;;;;;;17.52;3.42;;;9.80;99.90;;;;;;5909117;24;20056;-91
2023/01/05 02:44:50;;;;;;;19.05;3.65;;;9.70;99.90;;;;;;5918451;24;20029;-90
2023/01/05 02:47:26;;;;;;;20.13;4.75;;;9.70;99.90;;;;;;5916510;24;20435;-90
2023/01/05 02:49:59;;;;;;;21.42;4.25;;;9.70;99.90;;;;;;5986654;23;20566;-90
2023/01/05 02:52:26;;;;;;;24.02;4.25;;;9.70;99.90;;;;;;5914762;24;20020;-90
2023/01/05 02:54:56;;;;;;;21.67;4.15;;;9.80;99.90;;;;;;5913815;24;20016;-89
2023/01/05 02:57:46;;;;;;;17.20;3.63;;;9.80;99.90;;;;;;5911569;24;20288;-91
2023/01/05 03:00:19;;;;;;;18.65;3.45;;;9.80;99.90;;;;;;5916415;24;20134;-89
2023/01/05 03:02:48;;;;;;;18.42;3.13;;;9.80;99.90;;;;;;5920527;24;20032;-89
2023/01/05 03:05:25;;;;;;;19.40;3.50;;;9.80;99.90;;;;;;5944194;24;20041;-89
2023/01/05 03:07:53;;;;;;;16.73;4.07;;;9.70;99.90;;;;;;5919920;24;20016;-89
2023/01/05 03:16:01;;;;;;;19.08;3.65;;;9.60;99.90;;;;;;5941927;24;20089;-89
2023/01/05 03:18:27;;;;;;;20.50;4.22;;;9.60;99.90;;;;;;5944443;24;20035;-90
2023/01/05 03:20:54;;;;;;;20.05;5.05;;;9.60;99.90;;;;;;5920713;24;20020;-89
2023/01/05 03:37:54;;;;;;;23.33;4.97;;;9.70;99.90;;;;;;5940633;24;20100;-90
2023/01/05 03:40:32;;;;;;;15.05;3.78;;;9.70;99.90;;;;;;5918936;24;20034;-90
2023/01/05 03:42:58;;;;;;;14.27;3.83;;;9.70;99.90;;;;;;5917861;24;20105;-90
2023/01/05 03:45:31;;;;;;;20.77;3.70;;;9.70;99.90;;;;;;5943305;24;20017;-91
2023/01/05 03:47:56;;;;;;;21.63;5.40;;;9.70;99.90;;;;;;5921619;24;20104;-89
2023/01/05 03:50:22;;;;;;;23.75;4.32;;;9.70;99.90;;;;;;5944051;24;20024;-91
2023/01/05 03:52:48;;;;;;;20.20;4.35;;;9.70;99.90;;;;;;5941996;24;20412;-90
2023/01/05 03:55:13;;;;;;;19.42;4.30;;;9.70;99.90;;;;;;5942475;24;20047;-91
2023/01/05 03:57:39;;;;;;;24.10;4.65;;;9.70;99.90;;;;;;5942053;24;20028;-90
2023/01/05 04:00:05;;;;;;;23.88;4.40;;;9.70;99.90;;;;;;5920587;24;20028;-90
2023/01/05 04:02:31;;;;;;;19.52;4.10;;;9.70;99.90;;;;;;5922049;24;20068;-89
2023/01/05 04:04:56;;;;;;;27.33;4.82;;;9.70;99.90;;;;;;5941099;24;20020;-90
2023/01/05 04:07:22;;;;;;;19.30;3.78;;;9.70;99.90;;;;;;5919347;24;20113;-91
2023/01/05 04:09:48;;;;;;;19.52;4.65;;;9.70;99.90;;;;;;5920902;24;20016;-90
2023/01/05 04:12:13;;;;;;;20.98;3.90;;;9.70;99.90;;;;;;5919481;24;20024;-89
2023/01/05 04:14:39;;;;;;;20.13;4.35;;;9.70;99.90;;;;;;5917809;24;20361;-90
2023/01/05 04:17:07;;;;;;;24.25;5.00;;;9.70;99.90;;;;;;5918082;24;20196;-90
2023/01/05 04:19:33;;;;;;;22.35;4.65;;;9.70;99.90;;;;;;5917725;24;20110;-91
2023/01/05 04:21:59;;;;;;;26.17;5.03;;;9.70;99.90;;;;;;5941827;24;20108;-90
2023/01/05 04:24:24;;;;;;;22.58;4.30;;;9.80;99.90;;;;;;5940798;24;20463;-90
2023/01/05 04:26:50;;;;;;;21.13;4.20;;;9.80;99.90;;;;;;5942130;24;20404;-89
2023/01/05 04:29:16;;;;;;;25.20;4.85;;;9.80;99.90;;;;;;5943327;24;20026;-90
2023/01/05 04:31:41;;;;;;;30.95;6.35;;;9.80;99.90;;;;;;5919923;24;20131;-90
2023/01/05 04:34:07;;;;;;;24.13;4.18;;;9.80;99.90;;;;;;5939333;24;20322;-91
2023/01/05 04:36:32;;;;;;;26.48;5.10;;;9.70;99.90;;;;;;5920314;24;20127;-90
2023/01/05 04:39:01;;;;;;;16.02;4.35;;;9.80;99.90;;;;;;5918858;24;20564;-89
2023/01/05 04:41:26;;;;;;;23.17;4.25;;;9.80;99.90;;;;;;5919415;24;20098;-90
2023/01/05 04:43:52;;;;;;;25.30;4.93;;;9.80;99.90;;;;;;5919187;24;20020;-90
2023/01/05 04:46:18;;;;;;;25.13;4.68;;;9.80;99.90;;;;;;5919574;24;20702;-89
2023/01/05 04:48:46;;;;;;;22.58;4.03;;;9.80;99.90;;;;;;5920774;24;20296;-90
2023/01/05 04:51:12;;;;;;;16.15;3.95;;;9.80;99.90;;;;;;5941726;24;20028;-91
2023/01/05 04:53:38;;;;;;;23.52;4.32;;;9.80;99.90;;;;;;5917057;24;20361;-90
2023/01/05 04:56:04;;;;;;;21.33;5.50;;;9.80;99.90;;;;;;5918291;24;20075;-89
2023/01/05 04:58:29;;;;;;;18.15;4.07;;;9.80;99.90;;;;;;5919890;24;20542;-91
2023/01/05 05:00:55;;;;;;;18.88;4.35;;;9.80;99.90;;;;;;5917439;24;20027;-90
2023/01/05 05:03:23;;;;;;;17.83;4.30;;;9.80;99.90;;;;;;5919737;24;20032;-88
2023/01/05 05:05:49;;;;;;;26.75;3.75;;;9.80;99.90;;;;;;5944280;24;20020;-90
2023/01/05 05:08:15;;;;;;;19.35;4.13;;;9.80;99.90;;;;;;5942599;24;20016;-91
2023/01/05 05:10:40;;;;;;;14.63;3.88;;;9.80;99.90;;;;;;5919372;24;20350;-90
2023/01/05 05:13:06;;;;;;;19.50;4.32;;;9.80;99.90;;;;;;5942475;24;20020;-91
2023/01/05 05:15:31;;;;;;;18.27;3.33;;;9.80;99.90;;;;;;5917967;24;20020;-89
2023/01/05 05:17:57;;;;;;;20.45;3.92;;;9.80;99.90;;;;;;5918034;24;20080;-91
2023/01/05 05:20:23;;;;;;;21.42;5.20;;;9.80;99.90;;;;;;5915253;24;20103;-90
2023/01/05 05:22:48;;;;;;;15.43;3.58;;;9.80;99.90;;;;;;5914686;24;20035;-89
2023/01/05 05:25:14;;;;;;;18.52;3.83;;;9.80;99.90;;;;;;5917304;24;20016;-89
2023/01/05 05:27:40;;;;;;;22.20;3.85;;;9.80;99.90;;;;;;5918100;24;20457;-90
2023/01/05 05:30:06;;;;;;;19.73;4.50;;;9.80;99.90;;;;;;5939106;24;20099;-90
2023/01/05 05:32:32;;;;;;;19.05;3.55;;;9.90;99.90;;;;;;5940501;24;20032;-89
2023/01/05 05:34:57;;;;;;;23.60;3.92;;;9.90;99.90;;;;;;5917389;24;20028;-90
2023/01/05 05:37:23;;;;;;;19.50;5.03;;;9.90;99.90;;;;;;5916071;24;20106;-90
2023/01/05 05:39:49;;;;;;;19.75;4.55;;;9.90;99.90;;;;;;5918043;24;20127;-88
2023/01/05 05:42:14;;;;;;;27.42;4.63;;;9.80;99.90;;;;;;5918403;24;20201;-92
2023/01/05 05:44:40;;;;;;;18.70;4.20;;;9.80;99.90;;;;;;5940604;24;20091;-90
2023/01/05 05:47:06;;;;;;;20.88;3.63;;;9.80;99.90;;;;;;5917414;24;20296;-90
2023/01/05 05:49:34;;;;;;;19.20;3.83;;;9.80;99.90;;;;;;5939332;24;20012;-90
2023/01/05 05:52:00;;;;;;;23.42;4.70;;;9.80;99.90;;;;;;5918908;24;20024;-90
2023/01/05 05:54:26;;;;;;;22.23;4.47;;;9.90;99.90;;;;;;5944573;24;20331;-90
2023/01/05 05:56:51;;;;;;;16.15;3.90;;;9.90;99.90;;;;;;5942982;24;20489;-89
2023/01/05 05:59:17;;;;;;;20.60;4.05;;;9.90;99.90;;;;;;5921594;24;20020;-89
2023/01/05 06:01:43;;;;;;;22.15;4.07;;;9.90;99.90;;;;;;5919438;24;20020;-90
2023/01/05 06:04:14;;;;;;;24.33;4.47;;;9.90;99.90;;;;;;5944222;24;20680;-90
2023/01/05 06:06:40;;;;;;;23.27;3.97;;;9.90;99.90;;;;;;5940594;24;20039;-90
2023/01/05 06:09:06;;;;;;;15.43;4.18;;;9.90;99.90;;;;;;5919003;24;20043;-90
2023/01/05 06:11:31;;;;;;;19.95;4.22;;;9.90;99.90;;;;;;5919291;24;20187;-91
2023/01/05 06:13:57;;;;;;;19.55;3.85;;;9.90;99.90;;;;;;5941674;24;20031;-90
2023/01/05 06:16:22;;;;;;;22.50;3.70;;;9.90;99.90;;;;;;5943613;24;20111;-90
2023/01/05 06:18:51;;;;;;;20.73;4.28;;;9.90;99.90;;;;;;5917084;24;20509;-90
2023/01/05 06:21:18;;;;;;;23.02;4.18;;;9.90;99.90;;;;;;5919367;24;20020;-89
2023/01/05 06:23:44;;;;;;;17.08;3.42;;;9.90;99.90;;;;;;5922375;24;20016;-90
2023/01/05 06:26:09;;;;;;;15.90;3.95;;;9.90;99.90;;;;;;5923042;24;20099;-90
2023/01/05 06:28:35;;;;;;;17.60;3.67;;;10.00;99.90;;;;;;5922248;24;20024;-91
2023/01/05 06:31:01;;;;;;;17.90;4.18;;;10.00;99.90;;;;;;5919483;24;20016;-89
2023/01/05 06:33:26;;;;;;;19.17;3.60;;;9.90;99.90;;;;;;5922690;24;20016;-91
2023/01/05 06:35:52;;;;;;;16.02;3.65;;;9.90;99.90;;;;;;5920810;24;20031;-90
2023/01/05 06:38:18;;;;;;;16.35;3.78;;;9.90;99.90;;;;;;5942784;24;20046;-90
2023/01/05 06:40:46;;;;;;;23.40;4.35;;;9.90;99.90;;;;;;5919690;24;20023;-90
2023/01/05 06:43:12;;;;;;;23.25;4.03;;;9.90;99.90;;;;;;5943853;24;20080;-91
2023/01/05 06:45:37;;;;;;;15.90;3.60;;;9.80;99.90;;;;;;5918722;24;20426;-90
2023/01/05 06:48:04;;;;;;;22.50;4.28;;;9.80;99.90;;;;;;5919689;24;20087;-91
2023/01/05 06:50:30;;;;;;;17.92;4.10;;;9.80;99.90;;;;;;5921274;24;20024;-90
2023/01/05 06:52:57;;;;;;;23.58;4.05;;;9.80;99.90;;;;;;5918889;24;20016;-90
2023/01/05 06:55:22;;;;;;;22.70;4.00;;;9.80;99.90;;;;;;5945456;24;20016;-90
2023/01/05 06:57:48;;;;;;;22.40;4.25;;;9.80;99.90;;;;;;5918683;24;20353;-91
2023/01/05 07:00:14;;;;;;;14.55;3.00;;;9.80;99.90;;;;;;5916912;24;20264;-90
2023/01/05 07:02:40;;;;;;;14.05;3.75;;;9.80;99.90;;;;;;5944483;24;20059;-89
2023/01/05 07:05:07;;;;;;;18.90;3.97;;;9.80;99.90;;;;;;5921044;24;20062;-89
2023/01/05 07:07:33;;;;;;;16.30;3.83;;;9.80;99.90;;;;;;5917176;24;20482;-89
2023/01/05 07:09:59;;;;;;;21.58;4.00;;;9.80;99.90;;;;;;5920493;24;20185;-90
2023/01/05 07:12:24;;;;;;;25.30;4.38;;;9.80;99.90;;;;;;5920676;24;20020;-90
2023/01/05 07:18:31;;;;;;;15.38;3.72;;;9.80;99.90;;;;;;6038249;23;20057;-89
2023/01/05 07:21:00;;;;;;;16.38;3.67;;;9.80;99.90;;;;;;6026766;23;20064;-92
2023/01/05 07:23:26;;;;;;;19.80;4.10;;;9.70;99.90;;;;;;6029582;23;20133;-90
2023/01/05 07:25:51;;;;;;;23.50;4.30;;;9.80;99.90;;;;;;6031529;23;20413;-89
2023/01/05 07:28:17;;;;;;;18.77;4.22;;;9.70;99.90;;;;;;6031314;23;20389;-89
2023/01/05 07:30:49;;;;;;;23.80;4.22;;;9.70;99.90;;;;;;6055364;23;20011;-91
2023/01/05 07:33:14;;;;;;;18.92;3.45;;;9.70;99.90;;;;;;6055409;23;20018;-89
2023/01/05 07:35:40;;;;;;;17.77;3.70;;;9.70;99.90;;;;;;6030744;23;20017;-90
2023/01/05 07:38:06;;;;;;;18.55;3.55;;;9.80;99.90;;;;;;6051139;23;20034;-89
2023/01/05 07:40:31;;;;;;;17.40;3.75;;;9.80;99.90;;;;;;6031062;23;20019;-90
2023/01/05 07:42:57;;;;;;;14.57;3.47;;;9.80;99.90;;;;;;6030733;23;20454;-89
2023/01/05 07:45:23;;;;;;;16.65;4.25;;;9.80;99.90;;;;;;6055353;23;20335;-90
2023/01/05 07:47:48;;;;;;;19.38;4.18;;;9.80;99.90;;;;;;6054497;23;20101;-90
2023/01/05 07:50:14;;;;;;;17.40;3.85;;;9.80;99.90;;;;;;6055839;23;20014;-89
2023/01/05 07:52:39;;;;;;;18.75;4.10;;;9.80;99.90;;;;;;6029624;23;20077;-89
2023/01/05 07:55:05;;;;;;;13.48;3.63;;;9.80;99.90;;;;;;6032125;23;20407;-89
2023/01/05 07:57:34;;;;;;;17.70;4.38;;;9.80;99.90;;;;;;6031048;23;20054;-89
2023/01/05 07:59:59;;;;;;;23.35;4.53;;;9.70;99.90;;;;;;6054530;23;20022;-88
2023/01/05 08:02:26;;;;;;;16.20;3.70;;;9.70;99.90;;;;;;6054684;23;20287;-90
2023/01/05 08:04:52;;;;;;;13.18;3.15;;;9.70;99.90;;;;;;6030802;23;20030;-91
2023/01/05 08:07:18;;;;;;;18.42;3.70;;;9.70;99.90;;;;;;6051948;23;20019;-89
2023/01/05 08:12:31;;;;;;;21.75;4.18;;;9.70;99.90;;;;;;6077427;23;20074;-88
2023/01/05 08:14:56;;;;;;;15.98;3.60;;;9.70;99.90;;;;;;6055658;23;20105;-89
2023/01/05 08:17:22;;;;;;;20.15;3.67;;;9.70;99.90;;;;;;6053798;23;20075;-88
2023/01/05 08:19:48;;;;;;;21.33;3.70;;;9.70;99.90;;;;;;6055697;23;20046;-89
2023/01/05 08:22:13;;;;;;;18.02;3.97;;;9.70;99.90;;;;;;6052734;23;20026;-90
2023/01/05 08:24:39;;;;;;;15.43;3.88;;;9.70;99.90;;;;;;6030397;23;20201;-91
2023/01/05 08:27:04;;;;;;;18.65;4.88;;;9.70;99.90;;;;;;6054910;23;20015;-88
2023/01/05 08:29:30;;;;;;;14.50;3.40;;;9.70;99.90;;;;;;6031230;23;20082;-92
2023/01/05 08:31:56;;;;;;;16.88;3.85;;;9.70;99.90;;;;;;6054377;23;20033;-90
2023/01/05 08:34:22;;;;;;;14.57;3.55;;;9.80;99.90;;;;;;6032125;23;20073;-89
2023/01/05 08:36:47;;;;;;;22.27;4.32;;;9.70;99.90;;;;;;6053708;23;20018;-90
2023/01/05 08:39:13;;;;;;;15.30;3.47;;;9.70;99.90;;;;;;6054856;23;20120;-90
2023/01/05 08:41:40;;;;;;;17.30;3.45;;;9.70;99.90;;;;;;6031082;23;20023;-91
2023/01/05 08:44:14;;;;;;;20.00;5.20;;;9.70;99.90;;;;;;6055824;23;20014;-90
2023/01/05 08:46:40;;;;;;;17.75;4.15;;;9.70;99.90;;;;;;6029390;23;20023;-90
2023/01/05 08:49:08;;;;;;;14.57;3.50;;;9.70;99.90;;;;;;6031952;23;20287;-90
2023/01/05 08:51:34;;;;;;;17.60;3.67;;;9.70;99.90;;;;;;6031511;23;20057;-90
2023/01/05 08:54:00;;;;;;;19.42;4.10;;;9.70;99.90;;;;;;6031130;23;20018;-90
2023/01/05 08:56:27;;;;;;;16.60;3.50;;;9.70;99.90;;;;;;6031107;23;20110;-89
2023/01/05 08:58:57;;;;;;;24.40;4.40;;;9.70;99.90;;;;;;6030864;23;20374;-89
2023/01/05 09:01:23;;;;;;;15.98;3.72;;;9.70;99.90;;;;;;6029888;23;20050;-90
2023/01/05 09:03:49;;;;;;;17.50;3.70;;;9.70;99.90;;;;;;6031174;23;20396;-89
2023/01/05 09:06:16;;;;;;;21.10;3.80;;;9.70;99.90;;;;;;6029800;23;20118;-88
2023/01/05 09:08:43;;;;;;;16.67;4.97;;;9.70;99.90;;;;;;6054272;23;20083;-89
2023/01/05 09:11:20;;;;;;;26.27;4.75;;;9.70;99.90;;;;;;6030797;23;20042;-89
2023/01/05 09:13:54;;;;;;;22.40;4.10;;;9.80;99.90;;;;;;6029577;23;20015;-90
2023/01/05 09:16:22;;;;;;;17.52;3.95;;;9.80;99.90;;;;;;6030363;23;20126;-89
2023/01/05 09:18:47;;;;;;;18.02;3.33;;;9.80;99.90;;;;;;6030663;23;20027;-90
2023/01/05 09:21:14;;;;;;;16.20;4.05;;;9.90;99.90;;;;;;6030312;23;20633;-89
2023/01/05 09:23:40;;;;;;;17.40;3.70;;;9.90;99.90;;;;;;6030140;23;20019;-91
2023/01/05 09:26:09;;;;;;;20.20;4.00;;;9.80;99.90;;;;;;6030908;23;20487;-89
2023/01/05 09:28:35;;;;;;;17.92;2.95;;;9.90;99.90;;;;;;6030656;23;20023;-90
2023/01/05 09:31:10;;;;;;;18.77;4.38;;;9.90;99.90;;;;;;6030505;23;20021;-89
2023/01/05 09:33:37;;;;;;;12.00;2.95;;;9.90;99.90;;;;;;6055894;23;20025;-90
2023/01/05 09:36:02;;;;;;;24.85;4.47;;;9.90;99.90;;;;;;6032837;23;20069;-91
2023/01/05 09:38:29;;;;;;;19.63;3.35;;;9.90;99.90;;;;;;6031236;23;20089;-91
2023/01/05 09:41:01;;;;;;;17.67;3.25;;;9.90;99.90;;;;;;6031953;23;20109;-91
2023/01/05 09:43:33;;;;;;;13.25;3.28;;;9.90;99.90;;;;;;6031676;23;20019;-89
2023/01/05 09:45:59;;;;;;;17.25;3.90;;;10.00;99.90;;;;;;6031815;23;20022;-88
2023/01/05 09:48:26;;;;;;;20.13;4.50;;;9.90;99.90;;;;;;6032224;23;20041;-92
2023/01/05 09:50:52;;;;;;;16.05;3.30;;;10.00;99.90;;;;;;6056510;23;20019;-91
2023/01/05 09:53:27;;;;;;;17.63;3.90;;;9.90;99.90;;;;;;6029910;23;20057;-88
2023/01/05 09:55:53;;;;;;;23.90;3.95;;;10.00;99.90;;;;;;6032766;23;20025;-90
2023/01/05 09:58:25;;;;;;;14.38;3.30;;;10.00;99.90;;;;;;6031793;23;20030;-89
2023/01/05 10:01:14;;;;;;;17.83;3.70;;;10.00;99.90;;;;;;6028317;23;20094;-89
2023/01/05 10:06:39;;;;;;;15.80;3.30;;;10.00;99.90;;;;;;6079279;23;20023;-89
2023/01/05 10:09:06;;;;;;;18.30;3.07;;;10.10;99.90;;;;;;6055829;23;20097;-91
2023/01/05 10:15:06;;;;;;;19.15;3.17;;;10.00;99.90;;;;;;5998908;23;20016;-91
2023/01/05 10:17:38;;;;;;;18.75;3.47;;;10.00;99.90;;;;;;5949157;23;20031;-90
2023/01/05 10:20:23;;;;;;;15.98;3.30;;;10.00;99.90;;;;;;6027074;23;20034;-90
2023/01/05 10:23:34;;;;;;;18.90;3.70;;;10.00;99.90;;;;;;6029688;23;20385;-89
2023/01/05 10:26:23;;;;;;;15.02;3.40;;;10.00;99.90;;;;;;6028663;23;20021;-89
2023/01/05 10:28:54;;;;;;;15.52;3.70;;;10.00;99.90;;;;;;6031949;23;20053;-89
2023/01/05 10:31:51;;;;;;;15.65;2.78;;;10.00;99.90;;;;;;6030826;23;20074;-90
2023/01/05 10:34:40;;;;;;;15.68;2.78;;;10.10;99.90;;;;;;6048460;23;20054;-89
2023/01/05 10:37:21;;;;;;;11.13;2.78;;;10.10;99.90;;;;;;6027197;23;20022;-90
2023/01/05 10:40:12;;;;;;;13.45;3.40;;;10.10;99.90;;;;;;6052274;23;20030;-90
2023/01/05 10:43:02;;;;;;;13.40;2.75;;;10.10;99.90;;;;;;6030714;23;20019;-90
2023/01/05 10:45:30;;;;;;;14.65;2.67;;;10.00;99.90;;;;;;5974828;23;20033;-90
2023/01/05 10:47:59;;;;;;;12.13;2.53;;;9.90;99.90;;;;;;6027743;23;20046;-91
2023/01/05 10:50:34;;;;;;;15.77;3.03;;;9.90;99.90;;;;;;6031432;23;20019;-90
2023/01/05 10:53:08;;;;;;;15.02;2.83;;;9.90;99.90;;;;;;6029323;23;20026;-90
2023/01/05 10:55:43;;;;;;;14.93;3.30;;;9.80;99.90;;;;;;6031511;23;20027;-90
2023/01/05 10:58:26;;;;;;;15.52;2.92;;;9.90;99.90;;;;;;6032040;23;20532;-91
2023/01/05 11:00:55;;;;;;;18.20;3.22;;;9.80;99.90;;;;;;6031576;23;20268;-89
2023/01/05 11:03:28;;;;;;;18.73;4.43;;;9.90;99.90;;;;;;6054823;23;20022;-90
2023/01/05 11:05:55;;;;;;;18.58;3.38;;;9.80;99.90;;;;;;6032200;23;20408;-89
2023/01/05 11:08:25;;;;;;;18.90;3.55;;;9.80;99.90;;;;;;6030504;23;20132;-89
2023/01/05 11:11:00;;;;;;;15.25;3.15;;;9.80;99.90;;;;;;6032165;23;20019;-90
2023/01/05 11:13:29;;;;;;;27.30;3.80;;;9.80;99.90;;;;;;6032599;23;20018;-89
2023/01/05 11:16:05;;;;;;;16.77;4.18;;;9.80;99.90;;;;;;6029356;23;20015;-90
2023/01/05 11:18:49;;;;;;;17.85;4.05;;;9.90;99.90;;;;;;6029030;23;20054;-90
2023/01/05 11:21:17;;;;;;;19.35;3.55;;;9.90;99.90;;;;;;6053370;23;20069;-91
2023/01/05 11:23:49;;;;;;;15.52;3.63;;;9.90;99.90;;;;;;6028960;23;20460;-90
2023/01/05 11:26:14;;;;;;;21.95;3.85;;;9.90;99.90;;;;;;6030752;23;20121;-89
2023/01/05 11:28:59;;;;;;;17.90;4.20;;;10.00;99.90;;;;;;6030953;23;20015;-90
2023/01/05 11:31:56;;;;;;;21.92;4.30;;;10.00;99.90;;;;;;6029903;23;20057;-90
2023/01/05 11:34:46;;;;;;;11.25;2.90;;;10.00;99.90;;;;;;6027410;23;20034;-89
2023/01/05 11:37:22;;;;;;;11.93;2.72;;;10.10;99.90;;;;;;6053422;23;20105;-90
2023/01/05 11:40:02;;;;;;;11.63;2.50;;;10.20;99.90;;;;;;6032486;23;20019;-89
2023/01/05 11:42:41;;;;;;;8.60;1.92;;;10.20;99.90;;;;;;6026597;23;20022;-90
2023/01/05 11:45:28;;;;;;;11.02;2.25;;;10.20;99.90;;;;;;6031242;23;20075;-90
2023/01/05 11:48:07;;;;;;;8.93;2.30;;;10.20;99.90;;;;;;6030012;23;20108;-89
2023/01/05 11:50:50;;;;;;;10.48;2.15;;;10.20;99.90;;;;;;6030920;23;20011;-89
2023/01/05 11:53:37;;;;;;;7.35;1.70;;;10.20;99.90;;;;;;6029344;23;20065;-89
2023/01/05 11:56:23;;;;;;;8.25;1.85;;;10.20;99.90;;;;;;6031839;23;20477;-90
2023/01/05 11:58:49;;;;;;;;;;;10.30;99.90;;;;;;6031708;23;20471;-89
2023/01/05 12:01:33;;;;;;;9.10;2.10;;;10.30;99.90;;;;;;6029552;23;20387;-89
2023/01/05 12:04:20;;;;;;;9.60;2.33;;;10.40;99.90;;;;;;6030869;23;20382;-90
2023/01/05 12:07:07;;;;;;;13.82;2.97;;;10.50;99.90;;;;;;6052358;23;20053;-89
2023/01/05 12:09:58;;;;;;;16.35;2.60;;;10.60;99.90;;;;;;6030710;23;20465;-89
2023/01/05 12:12:41;;;;;;;9.20;2.20;;;10.70;99.90;;;;;;6003783;23;20809;-90
2023/01/05 12:15:10;;;;;;;11.88;2.53;;;10.80;99.90;;;;;;6055804;23;20094;-89
2023/01/05 12:18:09;;;;;;;12.35;2.40;;;11.00;99.90;;;;;;6029731;23;20068;-90
2023/01/05 12:20:52;;;;;;;8.35;2.25;;;11.00;99.90;;;;;;6054427;23;20077;-89
2023/01/05 12:23:44;;;;;;;10.40;2.40;;;11.00;99.90;;;;;;6028842;23;20023;-90
2023/01/05 12:26:29;;;;;;;9.98;2.30;;;11.00;99.90;;;;;;6052542;23;20018;-89
2023/01/05 12:29:04;;;;;;;14.50;3.30;;;10.90;99.90;;;;;;6031405;23;20437;-90
2023/01/05 12:31:51;;;;;;;11.40;2.75;;;10.90;99.90;;;;;;6054918;23;20018;-90
2023/01/05 12:34:36;;;;;;;12.70;2.78;;;10.80;99.90;;;;;;6031165;23;20109;-91
2023/01/05 12:37:21;;;;;;;23.38;3.20;;;10.80;99.90;;;;;;6029650;23;20658;-89
2023/01/05 12:40:15;;;;;;;15.77;3.03;;;10.80;99.90;;;;;;6030318;23;20025;-89
2023/01/05 12:42:57;;;;;;;14.40;3.03;;;10.70;99.90;;;;;;6029571;23;20023;-91
2023/01/05 12:45:54;;;;;;;15.13;3.47;;;10.70;99.90;;;;;;6028449;23;20540;-90
2023/01/05 12:48:29;;;;;;;14.82;3.42;;;10.70;99.90;;;;;;6054360;23;20022;-89
2023/01/05 12:51:07;;;;;;;17.83;3.03;;;10.60;99.90;;;;;;6030526;23;20061;-89
2023/01/05 12:53:46;;;;;;;13.95;3.85;;;10.60;99.90;;;;;;6028734;23;20133;-89
2023/01/05 12:56:30;;;;;;;15.73;3.22;;;10.60;99.90;;;;;;6030573;23;20015;-89
2023/01/05 12:59:16;;;;;;;16.50;3.90;;;10.60;99.90;;;;;;6029381;23;20323;-90
2023/01/05 13:01:51;;;;;;;16.73;3.50;;;10.60;99.90;;;;;;6053194;23;20027;-89
2023/01/05 13:04:34;;;;;;;12.60;3.55;;;10.60;99.90;;;;;;6030794;23;20093;-92
2023/01/05 13:07:06;;;;;;;20.05;4.60;;;10.60;99.90;;;;;;6028122;23;20019;-89
2023/01/05 13:09:36;;;;;;;18.08;3.58;;;10.60;99.90;;;;;;6029921;23;20015;-90
2023/01/05 13:12:06;;;;;;;16.75;3.90;;;10.50;99.90;;;;;;6030025;23;20405;-90
2023/01/05 13:14:38;;;;;;;19.88;3.70;;;10.50;99.90;;;;;;6029903;23;20027;-90
2023/01/05 13:17:29;;;;;;;14.82;3.50;;;10.50;99.90;;;;;;6029668;23;20472;-89
2023/01/05 13:20:21;;;;;;;14.02;3.47;;;10.50;99.90;;;;;;6030171;23;20460;-90
2023/01/05 13:22:50;;;;;;;19.17;4.10;;;10.40;99.90;;;;;;6016678;23;20108;-89
2023/01/05 13:25:23;;;;;;;15.93;3.20;;;10.50;99.90;;;;;;6054189;23;20202;-89
2023/01/05 13:27:48;;;;;;;15.65;3.40;;;10.50;99.90;;;;;;6053886;23;20022;-89
2023/01/05 13:30:28;;;;;;;26.35;4.45;;;10.40;99.90;;;;;;6054499;23;20353;-89
2023/01/05 13:33:20;;;;;;;22.25;4.05;;;10.40;99.90;;;;;;6029132;23;20480;-91
2023/01/05 13:35:53;;;;;;;15.25;3.70;;;10.40;99.90;;;;;;6030962;23;20608;-89
2023/01/05 13:38:35;;;;;;;16.05;3.40;;;10.40;99.90;;;;;;6053753;23;20014;-89
2023/01/05 13:41:25;;;;;;;13.93;3.47;;;10.30;99.90;;;;;;6028408;23;20098;-91
2023/01/05 13:44:12;;;;;;;13.00;3.33;;;10.30;99.90;;;;;;6028953;23;20074;-89
2023/01/05 13:47:04;;;;;;;19.77;3.50;;;10.40;99.90;;;;;;6029602;23;20047;-90
2023/01/05 13:49:57;;;;;;;18.20;3.92;;;10.40;99.90;;;;;;6054265;23;20011;-89
2023/01/05 13:52:52;;;;;;;20.65;4.50;;;10.30;99.90;;;;;;6052085;23;20026;-90